Time;durP1;ratioP1;P1;durP2;ratioP2;P2;SDS_P1;SDS_P2;PMS_P1;PMS_P2;Temp;Humidity;BMP_temperature;BMP_pressure;BME280_temperature;BME280_humidity;BME280_pressure;Samples;Min_cycle;Max_cycle;Signal;HPM_P1;HPM_P2
2022/02/08 00:02:14;;;;;;;8.20;3.05;;;;;;;;;;5036025;28;20596;-73
2022/02/08 00:04:41;;;;;;;3.45;2.03;;;;;;;;;;5044240;28;20202;-74
2022/02/08 00:07:11;;;;;;;6.05;1.95;;;;;;;;;;5047405;28;20231;-74
2022/02/08 00:09:38;;;;;;;4.32;1.75;;;;;;;;;;5038614;28;20195;-74
2022/02/08 00:12:05;;;;;;;5.65;2.67;;;;;;;;;;5046416;28;20557;-74
2022/02/08 00:14:32;;;;;;;4.35;2.00;;;;;;;;;;5050130;28;20191;-74
2022/02/08 00:16:59;;;;;;;3.08;1.63;;;;;;;;;;5041529;28;20218;-74
2022/02/08 00:19:27;;;;;;;6.60;2.25;;;;;;;;;;5038313;28;20195;-74
2022/02/08 00:21:54;;;;;;;3.72;2.10;;;;;;;;;;5041332;28;20253;-79
2022/02/08 00:24:22;;;;;;;5.93;2.30;;;;;;;;;;5044872;28;20195;-74
2022/02/08 00:26:49;;;;;;;4.63;2.05;;;;;;;;;;5050049;28;20226;-74
2022/02/08 00:29:16;;;;;;;6.10;2.25;;;;;;;;;;5042360;28;20616;-74
2022/02/08 00:31:44;;;;;;;8.63;2.80;;;;;;;;;;5050088;28;20658;-73
2022/02/08 00:34:11;;;;;;;5.68;2.03;;;;;;;;;;5053321;28;20199;-74
2022/02/08 00:36:38;;;;;;;3.42;1.83;;;;;;;;;;5041459;28;20659;-74
2022/02/08 00:39:07;;;;;;;6.20;2.60;;;;;;;;;;5032198;28;20239;-74
2022/02/08 00:41:36;;;;;;;4.85;2.42;;;;;;;;;;5035970;28;20202;-74
2022/02/08 00:44:07;;;;;;;8.35;2.50;;;;;;;;;;5038133;28;20282;-74
2022/02/08 00:46:39;;;;;;;9.15;2.65;;;;;;;;;;5039657;28;20223;-73
2022/02/08 00:49:09;;;;;;;5.18;2.38;;;;;;;;;;5044020;28;20286;-73
2022/02/08 00:51:42;;;;;;;6.68;2.63;;;;;;;;;;5042080;28;20546;-73
2022/02/08 00:54:09;;;;;;;5.20;2.40;;;;;;;;;;5044945;28;20209;-74
2022/02/08 00:56:38;;;;;;;5.03;1.90;;;;;;;;;;5046578;28;20210;-73
2022/02/08 00:59:07;;;;;;;9.60;2.40;;;;;;;;;;5049086;28;20199;-74
2022/02/08 01:01:37;;;;;;;3.90;2.65;;;;;;;;;;5049842;28;20217;-74
2022/02/08 01:04:04;;;;;;;14.55;3.00;;;;;;;;;;5047254;28;20198;-74
2022/02/08 01:06:31;;;;;;;2.38;2.10;;;;;;;;;;5046931;28;20237;-74
2022/02/08 01:09:09;;;;;;;5.90;2.40;;;;;;;;;;5050034;28;20372;-74
2022/02/08 01:11:38;;;;;;;6.50;2.55;;;;;;;;;;5050827;28;20197;-74
2022/02/08 01:14:05;;;;;;;7.38;3.30;;;;;;;;;;5044351;28;20201;-73
2022/02/08 01:16:32;;;;;;;4.85;2.00;;;;;;;;;;5048495;28;20199;-74
2022/02/08 01:19:01;;;;;;;10.95;2.67;;;;;;;;;;5049216;28;20190;-74
2022/02/08 01:21:30;;;;;;;6.78;2.80;;;;;;;;;;5044067;28;20198;-73
2022/02/08 01:23:57;;;;;;;5.93;2.60;;;;;;;;;;5048726;28;20231;-74
2022/02/08 01:26:24;;;;;;;5.25;2.60;;;;;;;;;;5043865;28;20230;-74
2022/02/08 01:28:59;;;;;;;14.65;3.75;;;;;;;;;;5041714;28;20570;-74
2022/02/08 01:31:28;;;;;;;7.90;2.58;;;;;;;;;;5039338;28;20187;-74
2022/02/08 01:34:11;;;;;;;5.68;2.60;;;;;;;;;;5048157;28;20290;-72
2022/02/08 01:37:00;;;;;;;5.40;3.30;;;;;;;;;;5043330;28;20491;-72
2022/02/08 01:39:35;;;;;;;5.22;2.17;;;;;;;;;;5039656;28;20196;-72
2022/02/08 01:42:22;;;;;;;3.85;2.20;;;;;;;;;;5041695;28;20200;-73
2022/02/08 01:45:05;;;;;;;8.50;3.03;;;;;;;;;;5042111;28;20712;-74
2022/02/08 01:47:44;;;;;;;5.53;2.70;;;;;;;;;;5044998;28;20225;-73
2022/02/08 01:50:12;;;;;;;8.70;2.40;;;;;;;;;;5046672;28;20205;-73
2022/02/08 01:52:39;;;;;;;10.90;3.33;;;;;;;;;;5040148;28;20274;-73
2022/02/08 01:55:07;;;;;;;9.38;2.88;;;;;;;;;;5044024;28;20187;-73
2022/02/08 01:57:34;;;;;;;10.73;3.33;;;;;;;;;;5045843;28;20285;-73
2022/02/08 02:00:05;;;;;;;5.72;3.22;;;;;;;;;;5043686;28;20195;-73
2022/02/08 02:02:32;;;;;;;11.95;3.83;;;;;;;;;;5032414;28;20207;-73
2022/02/08 02:04:59;;;;;;;13.20;3.88;;;;;;;;;;5041445;28;20187;-73
2022/02/08 02:07:26;;;;;;;7.82;3.17;;;;;;;;;;5042033;28;20620;-73
2022/02/08 02:09:54;;;;;;;7.63;2.55;;;;;;;;;;5044885;28;20195;-73
2022/02/08 02:12:21;;;;;;;9.93;3.95;;;;;;;;;;5052650;28;20202;-73
2022/02/08 02:14:48;;;;;;;14.65;3.83;;;;;;;;;;5047310;28;20210;-73
2022/02/08 02:17:17;;;;;;;7.45;3.53;;;;;;;;;;5049841;28;20195;-72
2022/02/08 02:19:44;;;;;;;7.63;3.17;;;;;;;;;;5041643;28;20658;-73
2022/02/08 02:22:11;;;;;;;10.25;3.58;;;;;;;;;;5044057;28;20205;-73
2022/02/08 02:24:40;;;;;;;8.57;3.25;;;;;;;;;;5049799;28;20229;-73
2022/02/08 02:27:09;;;;;;;13.52;3.67;;;;;;;;;;5048080;28;20254;-73
2022/02/08 02:29:36;;;;;;;10.43;3.17;;;;;;;;;;5052263;28;20286;-73
2022/02/08 02:32:04;;;;;;;5.63;3.22;;;;;;;;;;5049015;28;20198;-73
2022/02/08 02:34:31;;;;;;;5.43;2.63;;;;;;;;;;5047358;28;20427;-73
2022/02/08 02:36:59;;;;;;;8.80;2.92;;;;;;;;;;5045354;28;20210;-74
2022/02/08 02:39:27;;;;;;;8.23;3.75;;;;;;;;;;5043754;28;20195;-73
2022/02/08 02:41:56;;;;;;;7.30;3.35;;;;;;;;;;5049131;28;20197;-73
2022/02/08 02:44:24;;;;;;;10.70;3.45;;;;;;;;;;5042991;28;20191;-73
2022/02/08 02:46:52;;;;;;;7.70;3.25;;;;;;;;;;5051168;28;20685;-73
2022/02/08 02:49:19;;;;;;;18.33;4.45;;;;;;;;;;5049173;28;20183;-73
2022/02/08 02:51:46;;;;;;;4.50;3.15;;;;;;;;;;5045193;28;20199;-73
2022/02/08 02:54:14;;;;;;;6.03;3.05;;;;;;;;;;5048322;28;20589;-73
2022/02/08 02:56:41;;;;;;;6.13;2.50;;;;;;;;;;5052503;28;20190;-73
2022/02/08 02:59:10;;;;;;;5.63;2.90;;;;;;;;;;5048617;28;20191;-73
2022/02/08 03:01:44;;;;;;;8.38;3.15;;;;;;;;;;5043598;28;20187;-73
2022/02/08 03:04:28;;;;;;;3.83;3.00;;;;;;;;;;5039515;28;20202;-73
2022/02/08 03:21:06;;;;;;;6.85;2.95;;;;;;;;;;5038186;28;20195;-73
2022/02/08 03:23:34;;;;;;;4.78;2.70;;;;;;;;;;5049969;28;20658;-73
2022/02/08 03:26:01;;;;;;;5.43;3.00;;;;;;;;;;5049925;28;20276;-73
2022/02/08 03:28:28;;;;;;;4.68;2.67;;;;;;;;;;5044715;28;20187;-73
2022/02/08 03:30:56;;;;;;;8.68;3.42;;;;;;;;;;5045907;28;20195;-73
2022/02/08 03:33:25;;;;;;;9.73;3.63;;;;;;;;;;5051147;28;20191;-73
2022/02/08 03:35:54;;;;;;;6.93;3.50;;;;;;;;;;5044162;28;20205;-73
2022/02/08 03:38:27;;;;;;;9.07;3.60;;;;;;;;;;5048052;28;20229;-73
2022/02/08 03:40:55;;;;;;;7.22;4.47;;;;;;;;;;5045930;28;20196;-73
2022/02/08 03:43:31;;;;;;;4.90;2.70;;;;;;;;;;5041955;28;20223;-73
2022/02/08 03:46:01;;;;;;;5.63;3.45;;;;;;;;;;5044680;28;20680;-73
2022/02/08 03:48:31;;;;;;;5.05;2.90;;;;;;;;;;5051823;28;20202;-73
2022/02/08 03:51:07;;;;;;;6.68;4.55;;;;;;;;;;5045715;28;20558;-73
2022/02/08 03:53:34;;;;;;;10.60;3.33;;;;;;;;;;5047787;28;20654;-73
2022/02/08 03:56:01;;;;;;;3.78;2.78;;;;;;;;;;5042836;28;20183;-73
2022/02/08 03:58:29;;;;;;;5.68;2.85;;;;;;;;;;5051060;28;20201;-73
2022/02/08 04:01:20;;;;;;;4.38;2.88;;;;;;;;;;5043213;28;20207;-73
2022/02/08 04:04:05;;;;;;;7.50;3.50;;;;;;;;;;5032153;28;20666;-73
2022/02/08 04:06:32;;;;;;;5.43;2.30;;;;;;;;;;5043161;28;20281;-73
2022/02/08 04:09:00;;;;;;;5.75;2.25;;;;;;;;;;5051045;28;20198;-73
2022/02/08 04:11:28;;;;;;;6.93;2.47;;;;;;;;;;5040037;28;20191;-73
2022/02/08 04:14:01;;;;;;;4.22;2.13;;;;;;;;;;5050849;28;20186;-73
2022/02/08 04:16:32;;;;;;;4.20;2.90;;;;;;;;;;5045945;28;20191;-73
2022/02/08 04:19:15;;;;;;;3.08;2.15;;;;;;;;;;5045127;28;20187;-73
2022/02/08 04:32:58;;;;;;;3.40;3.10;;;;;;;;;;5037603;28;20230;-73
2022/02/08 04:35:45;;;;;;;3.45;2.70;;;;;;;;;;5043885;28;20669;-73
2022/02/08 04:38:28;;;;;;;3.20;2.20;;;;;;;;;;5040685;28;20613;-74
2022/02/08 04:41:00;;;;;;;3.80;2.97;;;;;;;;;;5038076;28;20190;-74
2022/02/08 04:43:41;;;;;;;3.72;2.72;;;;;;;;;;5039342;28;20270;-73
2022/02/08 04:46:26;;;;;;;2.58;2.38;;;;;;;;;;5045431;28;20601;-73
2022/02/08 04:48:56;;;;;;;3.25;2.95;;;;;;;;;;5042295;28;20187;-74
2022/02/08 04:51:30;;;;;;;4.43;4.03;;;;;;;;;;5040664;28;20203;-74
2022/02/08 04:54:06;;;;;;;3.35;2.80;;;;;;;;;;5049450;28;20614;-73
2022/02/08 04:59:35;;;;;;;4.07;3.30;;;;;;;;;;5039885;28;20613;-74
2022/02/08 05:02:20;;;;;;;2.95;2.70;;;;;;;;;;5043448;28;20589;-74
2022/02/08 05:27:19;;;;;;;6.10;3.50;;;;;;;;;;5042776;28;20712;-73
2022/02/08 05:35:26;;;;;;;5.60;5.07;;;;;;;;;;5042235;28;20201;-73
2022/02/08 05:43:42;;;;;;;5.32;4.72;;;;;;;;;;5030818;28;20199;-73
2022/02/08 05:49:04;;;;;;;6.78;5.13;;;;;;;;;;5040462;28;20205;-74
2022/02/08 05:51:55;;;;;;;8.10;7.22;;;;;;;;;;5046744;28;20226;-74
2022/02/08 05:54:21;;;;;;;5.57;4.95;;;;;;;;;;5039656;28;20205;-74
2022/02/08 05:56:53;;;;;;;11.77;7.35;;;;;;;;;;5050869;28;20256;-73
2022/02/08 05:59:20;;;;;;;9.25;8.23;;;;;;;;;;5050711;28;20195;-73
2022/02/08 06:01:48;;;;;;;8.35;7.50;;;;;;;;;;5043139;28;20215;-74
2022/02/08 06:04:15;;;;;;;12.38;7.00;;;;;;;;;;5052139;28;20353;-73
2022/02/08 06:06:43;;;;;;;8.65;7.78;;;;;;;;;;5045852;28;20199;-73
2022/02/08 06:09:10;;;;;;;10.82;7.60;;;;;;;;;;5050718;28;20198;-73
2022/02/08 06:11:38;;;;;;;11.10;8.43;;;;;;;;;;5035804;28;20206;-73
2022/02/08 06:14:07;;;;;;;12.57;7.72;;;;;;;;;;5053008;28;20197;-73
2022/02/08 06:16:34;;;;;;;14.80;8.90;;;;;;;;;;5047161;28;20278;-73
2022/02/08 06:19:02;;;;;;;9.18;7.13;;;;;;;;;;5050443;28;20205;-73
2022/02/08 06:21:29;;;;;;;11.55;8.20;;;;;;;;;;5045342;28;20569;-73
2022/02/08 06:23:56;;;;;;;9.55;7.70;;;;;;;;;;5048454;28;20199;-73
2022/02/08 06:26:24;;;;;;;9.02;8.07;;;;;;;;;;5041487;28;20211;-73
2022/02/08 06:29:01;;;;;;;10.80;8.15;;;;;;;;;;5044666;28;20215;-73
2022/02/08 06:31:29;;;;;;;8.73;7.38;;;;;;;;;;5048595;28;20248;-73
2022/02/08 06:33:57;;;;;;;10.50;8.00;;;;;;;;;;5047755;28;20197;-73
2022/02/08 06:36:24;;;;;;;10.32;8.18;;;;;;;;;;5044565;28;20566;-74
2022/02/08 06:38:51;;;;;;;13.02;8.65;;;;;;;;;;5049585;28;20191;-74
2022/02/08 06:41:18;;;;;;;8.52;7.53;;;;;;;;;;5048597;28;20191;-74
2022/02/08 06:43:46;;;;;;;10.48;8.00;;;;;;;;;;5046970;28;20207;-74
2022/02/08 06:46:13;;;;;;;11.48;8.32;;;;;;;;;;5044769;28;20214;-73
2022/02/08 06:48:41;;;;;;;13.43;7.75;;;;;;;;;;5045343;28;20223;-73
2022/02/08 06:51:08;;;;;;;11.60;7.53;;;;;;;;;;5037182;28;20654;-74
2022/02/08 06:53:35;;;;;;;8.75;8.00;;;;;;;;;;5041613;28;20191;-73
2022/02/08 06:56:03;;;;;;;9.30;8.45;;;;;;;;;;5051169;28;20195;-72
2022/02/08 06:58:42;;;;;;;12.23;7.85;;;;;;;;;;5047840;28;20199;-73
2022/02/08 07:01:09;;;;;;;8.05;7.05;;;;;;;;;;5041110;28;20191;-73
2022/02/08 07:03:36;;;;;;;8.45;7.40;;;;;;;;;;5041701;28;20202;-73
2022/02/08 07:06:06;;;;;;;11.15;7.47;;;;;;;;;;5050935;28;20200;-73
2022/02/08 07:08:33;;;;;;;9.05;8.25;;;;;;;;;;5044360;28;20221;-73
2022/02/08 07:11:00;;;;;;;9.45;7.65;;;;;;;;;;5043100;28;20199;-73
2022/02/08 07:13:28;;;;;;;8.18;6.80;;;;;;;;;;5044379;28;20559;-73
2022/02/08 07:15:55;;;;;;;9.50;7.55;;;;;;;;;;5042299;28;20202;-73
2022/02/08 07:18:22;;;;;;;8.57;7.80;;;;;;;;;;5043776;28;20192;-73
2022/02/08 07:20:49;;;;;;;8.52;7.72;;;;;;;;;;5038402;28;20202;-73
2022/02/08 07:23:17;;;;;;;9.02;6.78;;;;;;;;;;5042818;28;20187;-73
2022/02/08 07:25:45;;;;;;;8.43;7.57;;;;;;;;;;5049463;28;20215;-80
2022/02/08 07:28:12;;;;;;;10.93;7.43;;;;;;;;;;5037620;28;20222;-80
2022/02/08 07:30:39;;;;;;;7.95;7.15;;;;;;;;;;5040953;28;20202;-73
2022/02/08 07:33:06;;;;;;;8.98;8.18;;;;;;;;;;5046632;28;20193;-73
2022/02/08 07:35:45;;;;;;;9.48;7.65;;;;;;;;;;5046070;28;20294;-73
2022/02/08 07:38:20;;;;;;;8.60;7.80;;;;;;;;;;5041158;28;20772;-73
2022/02/08 07:43:34;;;;;;;7.47;6.68;;;;;;;;;;5054150;28;20214;-73
2022/02/08 07:46:01;;;;;;;9.25;6.82;;;;;;;;;;5038638;28;20681;-73
2022/02/08 07:48:28;;;;;;;10.57;7.50;;;;;;;;;;5043851;28;20226;-73
2022/02/08 07:50:56;;;;;;;8.75;7.80;;;;;;;;;;5044416;28;20195;-73
2022/02/08 07:53:27;;;;;;;7.15;6.55;;;;;;;;;;5042742;28;20345;-74
2022/02/08 07:55:55;;;;;;;9.20;7.55;;;;;;;;;;5040265;28;20935;-73
2022/02/08 07:58:22;;;;;;;9.68;8.65;;;;;;;;;;5034275;28;20199;-74
2022/02/08 08:00:49;;;;;;;8.43;7.05;;;;;;;;;;5036160;28;20207;-74
2022/02/08 08:03:16;;;;;;;10.45;7.85;;;;;;;;;;5032092;28;20198;-73
2022/02/08 08:05:43;;;;;;;6.78;6.00;;;;;;;;;;5033444;28;20561;-73
2022/02/08 08:08:12;;;;;;;11.43;8.10;;;;;;;;;;5032009;28;20562;-73
2022/02/08 08:10:44;;;;;;;9.07;7.43;;;;;;;;;;5039237;28;20628;-73
2022/02/08 08:13:16;;;;;;;8.80;7.85;;;;;;;;;;5039924;28;20249;-73
2022/02/08 08:15:48;;;;;;;7.97;7.05;;;;;;;;;;5039698;28;20214;-73
2022/02/08 08:18:34;;;;;;;9.70;6.50;;;;;;;;;;5041394;28;20713;-73
2022/02/08 08:21:01;;;;;;;7.85;7.00;;;;;;;;;;5037479;28;20195;-73
2022/02/08 08:23:28;;;;;;;7.78;6.50;;;;;;;;;;5040284;28;20194;-73
2022/02/08 08:25:55;;;;;;;8.00;7.20;;;;;;;;;;5037924;28;20222;-73
2022/02/08 08:28:23;;;;;;;7.47;6.75;;;;;;;;;;5038832;28;20608;-73
2022/02/08 08:30:51;;;;;;;8.10;7.20;;;;;;;;;;5036997;28;20679;-72
2022/02/08 08:33:18;;;;;;;8.48;7.68;;;;;;;;;;5037241;28;20199;-74
2022/02/08 08:35:45;;;;;;;9.23;7.50;;;;;;;;;;5044687;28;20199;-73
2022/02/08 08:38:16;;;;;;;6.95;6.35;;;;;;;;;;5042260;28;20206;-73
2022/02/08 08:40:52;;;;;;;7.88;7.07;;;;;;;;;;5042579;28;20221;-73
2022/02/08 08:43:39;;;;;;;10.52;7.90;;;;;;;;;;5041508;28;20205;-73
2022/02/08 08:49:11;;;;;;;6.55;6.00;;;;;;;;;;5040557;28;20767;-73
2022/02/08 08:51:42;;;;;;;8.15;7.07;;;;;;;;;;5037841;28;20681;-73
2022/02/08 08:54:09;;;;;;;7.80;7.00;;;;;;;;;;5041770;28;20187;-73
2022/02/08 08:56:37;;;;;;;7.38;6.68;;;;;;;;;;5049419;28;20642;-73
2022/02/08 08:59:04;;;;;;;8.90;7.30;;;;;;;;;;5039166;28;20203;-73
2022/02/08 09:01:33;;;;;;;7.25;6.57;;;;;;;;;;5043258;28;20191;-73
2022/02/08 09:04:00;;;;;;;7.50;5.78;;;;;;;;;;5047093;28;20195;-73
2022/02/08 09:06:27;;;;;;;7.53;6.82;;;;;;;;;;5031009;28;20200;-73
2022/02/08 09:08:55;;;;;;;7.25;6.55;;;;;;;;;;5044867;28;20219;-73
2022/02/08 09:11:39;;;;;;;9.15;7.43;;;;;;;;;;5051024;28;20609;-73
2022/02/08 09:14:10;;;;;;;8.20;7.40;;;;;;;;;;5049492;28;20225;-73
2022/02/08 09:16:44;;;;;;;8.05;7.00;;;;;;;;;;5041010;28;20202;-73
2022/02/08 09:19:34;;;;;;;7.70;6.63;;;;;;;;;;5048978;28;20229;-73
2022/02/08 09:22:24;;;;;;;7.38;6.68;;;;;;;;;;5036745;28;20920;-73
2022/02/08 09:25:00;;;;;;;6.80;6.20;;;;;;;;;;5048290;28;20352;-73
2022/02/08 09:30:15;;;;;;;8.75;6.88;;;;;;;;;;5046129;28;20240;-73
2022/02/08 09:32:46;;;;;;;7.32;6.57;;;;;;;;;;5051747;28;20202;-73
2022/02/08 09:35:14;;;;;;;7.32;6.65;;;;;;;;;;5045910;28;20194;-73
2022/02/08 09:37:42;;;;;;;7.43;6.57;;;;;;;;;;5047371;28;20253;-73
2022/02/08 09:40:10;;;;;;;8.68;7.15;;;;;;;;;;5044333;28;20199;-73
2022/02/08 09:42:39;;;;;;;7.07;6.38;;;;;;;;;;5051136;28;20207;-73
2022/02/08 09:45:08;;;;;;;10.48;7.13;;;;;;;;;;5047073;28;20195;-73
2022/02/08 09:47:43;;;;;;;9.48;5.85;;;;;;;;;;5043779;28;20199;-73
2022/02/08 09:50:20;;;;;;;7.40;6.65;;;;;;;;;;5039785;28;20245;-73
2022/02/08 09:52:50;;;;;;;7.55;6.85;;;;;;;;;;5044890;28;20199;-73
2022/02/08 09:55:17;;;;;;;10.35;7.20;;;;;;;;;;5043088;28;20677;-74
2022/02/08 09:57:44;;;;;;;7.55;6.53;;;;;;;;;;5037134;28;20202;-73
2022/02/08 10:00:12;;;;;;;9.68;7.40;;;;;;;;;;5043473;28;20201;-73
2022/02/08 10:02:39;;;;;;;9.57;7.68;;;;;;;;;;5044059;28;20203;-73
2022/02/08 10:05:08;;;;;;;7.20;6.50;;;;;;;;;;5044115;28;20203;-73
2022/02/08 10:07:36;;;;;;;7.93;6.25;;;;;;;;;;5043295;28;20199;-73
2022/02/08 10:10:05;;;;;;;10.95;6.43;;;;;;;;;;5050958;28;20218;-73
2022/02/08 10:13:02;;;;;;;10.30;6.88;;;;;;;;;;5050091;28;20195;-73
2022/02/08 10:23:59;;;;;;;8.90;7.55;;;;;;;;;;5036885;28;20540;-78
2022/02/08 10:26:32;;;;;;;9.52;7.82;;;;;;;;;;5040954;28;20222;-73
2022/02/08 10:29:03;;;;;;;7.68;6.97;;;;;;;;;;5034232;28;20291;-73
2022/02/08 10:37:47;;;;;;;9.77;7.70;;;;;;;;;;4990439;28;20570;-73
2022/02/08 10:40:17;;;;;;;11.38;7.57;;;;;;;;;;5033831;28;20211;-73
2022/02/08 10:42:51;;;;;;;10.13;7.70;;;;;;;;;;5036919;28;20202;-73
2022/02/08 10:45:19;;;;;;;10.20;8.82;;;;;;;;;;5035853;28;20195;-73
2022/02/08 10:47:48;;;;;;;11.63;7.30;;;;;;;;;;5040167;28;20207;-73
2022/02/08 10:50:16;;;;;;;8.93;8.02;;;;;;;;;;5040158;28;20685;-73
2022/02/08 10:52:44;;;;;;;8.60;7.70;;;;;;;;;;5038231;28;20297;-73
2022/02/08 10:55:21;;;;;;;9.93;7.65;;;;;;;;;;5043093;28;20290;-73
2022/02/08 10:57:58;;;;;;;9.65;8.35;;;;;;;;;;5045242;28;20195;-73
2022/02/08 11:00:31;;;;;;;8.32;7.53;;;;;;;;;;5045910;28;20210;-73
2022/02/08 11:03:02;;;;;;;9.95;8.45;;;;;;;;;;5031094;28;20289;-73
2022/02/08 11:05:40;;;;;;;7.85;7.05;;;;;;;;;;5049653;28;20214;-73
2022/02/08 11:08:25;;;;;;;11.13;8.05;;;;;;;;;;5047965;28;20265;-72
2022/02/08 11:11:06;;;;;;;8.43;6.88;;;;;;;;;;5046647;28;20195;-73
2022/02/08 11:14:01;;;;;;;7.97;7.28;;;;;;;;;;5047797;28;20202;-73
2022/02/08 11:16:32;;;;;;;10.85;8.48;;;;;;;;;;5042672;28;20202;-73
2022/02/08 11:19:08;;;;;;;12.15;7.80;;;;;;;;;;5038223;28;20621;-73
2022/02/08 11:21:48;;;;;;;10.35;7.75;;;;;;;;;;5036198;28;20203;-73
2022/02/08 11:24:24;;;;;;;8.40;7.65;;;;;;;;;;5038404;28;20281;-73
2022/02/08 11:26:56;;;;;;;8.55;7.43;;;;;;;;;;5043852;28;20661;-73
2022/02/08 11:29:29;;;;;;;9.50;7.75;;;;;;;;;;5042680;28;20716;-73
2022/02/08 11:32:01;;;;;;;7.72;6.35;;;;;;;;;;5035843;28;20195;-73
2022/02/08 11:41:11;;;;;;;7.60;6.78;;;;;;;;;;5036879;28;20570;-73
2022/02/08 11:46:30;;;;;;;10.85;6.50;;;;;;;;;;5017540;28;20298;-74
2022/02/08 11:49:27;;;;;;;6.50;5.90;;;;;;;;;;5035069;28;20284;-74
2022/02/08 11:52:18;;;;;;;8.27;6.88;;;;;;;;;;5038715;28;20202;-73
2022/02/08 11:55:07;;;;;;;10.27;7.00;;;;;;;;;;5037025;28;20352;-73
2022/02/08 12:00:32;;;;;;;7.47;6.60;;;;;;;;;;5036770;28;20248;-73
2022/02/08 12:03:38;;;;;;;9.88;6.80;;;;;;;;;;5035319;28;20995;-73
2022/02/08 12:06:24;;;;;;;6.72;6.07;;;;;;;;;;5043566;28;20199;-73
2022/02/08 12:08:59;;;;;;;8.05;6.35;;;;;;;;;;5036796;28;20313;-72
2022/02/08 12:11:46;;;;;;;8.90;6.50;;;;;;;;;;5040572;28;20283;-74
2022/02/08 12:31:32;;;;;;;6.95;5.50;;;;;;;;;;5000903;28;20290;-72
2022/02/08 12:34:16;;;;;;;8.88;5.50;;;;;;;;;;5034767;28;20303;-74
2022/02/08 12:48:29;;;;;;;7.28;5.82;;;;;;;;;;5042871;28;20546;-75
2022/02/08 12:54:23;;;;;;;6.22;5.60;;;;;;;;;;4969998;28;20763;-74
2022/02/08 12:57:01;;;;;;;5.13;4.55;;;;;;;;;;5028725;28;20803;-75
2022/02/08 13:00:00;;;;;;;7.53;5.45;;;;;;;;;;5039767;28;20203;-75
2022/02/08 13:02:37;;;;;;;4.85;4.45;;;;;;;;;;5038691;28;20210;-74
2022/02/08 13:05:39;;;;;;;5.40;4.80;;;;;;;;;;5043795;28;20194;-75
2022/02/08 14:06:42;;;;;;;4.53;4.13;;;;;;;;;;5032085;28;20754;-75
2022/02/08 14:09:22;;;;;;;4.40;3.97;;;;;;;;;;5035809;28;20226;-77
2022/02/08 14:14:47;;;;;;;5.00;3.70;;;;;;;;;;5035633;28;20191;-76
2022/02/08 14:20:27;;;;;;;8.57;4.93;;;;;;;;;;5040474;28;20203;-76
2022/02/08 14:23:10;;;;;;;6.00;3.75;;;;;;;;;;5040625;28;20202;-75
2022/02/08 14:25:51;;;;;;;3.72;3.13;;;;;;;;;;5040560;28;20221;-75
2022/02/08 14:31:25;;;;;;;2.83;2.55;;;;;;;;;;5021558;28;20566;-76
2022/02/08 14:36:52;;;;;;;5.53;4.15;;;;;;;;;;5035742;28;20226;-75
2022/02/08 15:09:52;;;;;;;2.88;2.67;;;;;;;;;;5032628;28;20260;-77
2022/02/08 15:12:21;;;;;;;6.05;3.25;;;;;;;;;;5050004;28;20202;-77
2022/02/08 15:14:51;;;;;;;8.32;3.72;;;;;;;;;;5045498;28;20203;-77
2022/02/08 15:17:19;;;;;;;4.55;3.25;;;;;;;;;;5044354;28;20192;-78
2022/02/08 15:19:49;;;;;;;3.53;2.97;;;;;;;;;;5048606;28;20228;-76
2022/02/08 15:22:18;;;;;;;6.43;2.55;;;;;;;;;;5033725;28;20210;-77
2022/02/08 15:24:46;;;;;;;3.95;2.80;;;;;;;;;;5049609;28;20234;-77
2022/02/08 15:27:14;;;;;;;4.72;4.22;;;;;;;;;;5043402;28;20668;-76
2022/02/08 15:29:41;;;;;;;5.95;3.60;;;;;;;;;;5044125;28;20223;-76
2022/02/08 15:32:15;;;;;;;4.25;2.83;;;;;;;;;;5047377;28;20241;-76
2022/02/08 15:34:43;;;;;;;3.85;3.45;;;;;;;;;;5038222;28;20203;-76
2022/02/08 15:37:10;;;;;;;5.80;3.70;;;;;;;;;;5037794;28;20287;-78
2022/02/08 15:39:38;;;;;;;5.45;3.65;;;;;;;;;;5041249;28;20616;-76
2022/02/08 15:42:06;;;;;;;9.73;3.72;;;;;;;;;;5038772;28;20499;-76
2022/02/08 15:44:34;;;;;;;5.70;2.70;;;;;;;;;;5041591;28;20202;-76
2022/02/08 15:47:05;;;;;;;3.40;3.00;;;;;;;;;;5045823;28;20613;-77
2022/02/08 15:49:38;;;;;;;6.85;3.10;;;;;;;;;;5040578;28;20214;-79
2022/02/08 15:52:16;;;;;;;10.75;3.80;;;;;;;;;;5038582;28;20261;-77
2022/02/08 15:54:50;;;;;;;4.20;3.72;;;;;;;;;;5042550;28;20252;-78
2022/02/08 15:57:48;;;;;;;6.53;2.83;;;;;;;;;;5042339;28;20231;-78
2022/02/08 16:00:48;;;;;;;3.38;3.05;;;;;;;;;;5039346;28;20485;-77
2022/02/08 16:06:41;;;;;;;6.50;4.15;;;;;;;;;;5041030;28;20692;-77
2022/02/08 16:09:00;;;;;;;5.55;3.58;;;;;;;;;;5042117;28;20209;-76
2022/02/08 16:11:45;;;;;;;10.63;3.75;;;;;;;;;;5044108;28;20260;-76
2022/02/08 16:14:19;;;;;;;5.53;4.35;;;;;;;;;;5046263;28;20194;-75
2022/02/08 16:16:57;;;;;;;4.82;3.28;;;;;;;;;;5029799;28;20283;-76
2022/02/08 16:19:34;;;;;;;4.05;3.70;;;;;;;;;;5041231;28;20204;-76
2022/02/08 16:22:25;;;;;;;4.40;3.75;;;;;;;;;;5034869;28;20190;-75
2022/02/08 16:24:57;;;;;;;5.93;3.65;;;;;;;;;;5045861;28;20219;-75
2022/02/08 16:27:38;;;;;;;4.22;3.33;;;;;;;;;;5045772;28;20195;-76
2022/02/08 16:33:13;;;;;;;4.70;4.13;;;;;;;;;;5041065;28;20213;-76
2022/02/08 16:50:02;;;;;;;4.65;4.22;;;;;;;;;;5039850;28;20700;-76
2022/02/08 16:52:48;;;;;;;4.80;4.07;;;;;;;;;;5029848;28;20207;-76
2022/02/08 16:55:29;;;;;;;6.22;5.20;;;;;;;;;;5042842;28;20206;-76
2022/02/08 16:58:09;;;;;;;7.22;4.90;;;;;;;;;;5047819;28;20225;-75
2022/02/08 17:00:39;;;;;;;6.85;4.07;;;;;;;;;;5037151;28;20261;-76
2022/02/08 17:03:08;;;;;;;5.00;4.50;;;;;;;;;;5036387;28;20202;-77
2022/02/08 17:05:35;;;;;;;4.82;4.10;;;;;;;;;;5044664;28;20195;-76
2022/02/08 17:08:02;;;;;;;5.13;4.57;;;;;;;;;;5034251;28;20199;-77
2022/02/08 17:10:36;;;;;;;4.50;4.10;;;;;;;;;;5046901;28;20291;-75
2022/02/08 17:13:13;;;;;;;8.95;3.55;;;;;;;;;;5040464;28;20194;-76
2022/02/08 17:15:53;;;;;;;4.72;4.00;;;;;;;;;;5039799;28;20199;-78
2022/02/08 17:35:57;;;;;;;6.22;3.80;;;;;;;;;;5032619;28;20573;-77
2022/02/08 17:46:35;;;;;;;9.52;4.72;;;;;;;;;;5032746;28;20213;-74
2022/02/08 17:49:03;;;;;;;3.50;3.20;;;;;;;;;;5046032;28;20216;-74
2022/02/08 17:51:31;;;;;;;9.38;4.10;;;;;;;;;;5044716;28;20305;-74
2022/02/08 17:53:58;;;;;;;6.00;4.75;;;;;;;;;;5045657;28;20194;-75
2022/02/08 17:56:25;;;;;;;9.27;4.95;;;;;;;;;;5044324;28;20220;-74
2022/02/08 17:58:52;;;;;;;7.65;3.70;;;;;;;;;;5043791;28;20191;-74
2022/02/08 18:01:20;;;;;;;4.28;3.88;;;;;;;;;;5045257;28;20324;-74
2022/02/08 18:03:49;;;;;;;4.85;4.30;;;;;;;;;;5042563;28;20233;-75
2022/02/08 18:06:18;;;;;;;10.02;5.32;;;;;;;;;;5046208;28;20213;-74
2022/02/08 18:08:45;;;;;;;7.03;4.68;;;;;;;;;;5045787;28;20221;-75
2022/02/08 18:11:12;;;;;;;5.30;4.80;;;;;;;;;;5046152;28;20255;-74
2022/02/08 18:13:41;;;;;;;8.10;4.40;;;;;;;;;;5047135;28;20198;-74
2022/02/08 18:16:09;;;;;;;6.30;4.45;;;;;;;;;;5039911;28;20218;-74
2022/02/08 18:18:40;;;;;;;6.18;4.35;;;;;;;;;;5046721;28;20288;-77
2022/02/08 18:21:14;;;;;;;4.75;4.20;;;;;;;;;;5032057;28;20199;-76
2022/02/08 18:24:02;;;;;;;5.25;4.45;;;;;;;;;;5035373;28;20538;-76
2022/02/08 18:57:28;;;;;;;6.75;4.57;;;;;;;;;;5003444;28;20270;-76
2022/02/08 19:08:32;;;;;;;5.28;3.90;;;;;;;;;;5041476;28;20621;-76
2022/02/08 19:14:20;;;;;;;5.45;4.53;;;;;;;;;;5044434;28;20198;-77
2022/02/08 19:17:02;;;;;;;4.75;4.05;;;;;;;;;;5043102;28;20289;-78
2022/02/08 19:19:42;;;;;;;5.05;4.32;;;;;;;;;;5043602;28;20195;-76
2022/02/08 19:22:09;;;;;;;5.57;4.00;;;;;;;;;;5046535;28;20657;-76
2022/02/08 19:24:36;;;;;;;4.30;3.85;;;;;;;;;;5046407;28;20215;-75
2022/02/08 19:27:04;;;;;;;6.07;4.10;;;;;;;;;;5050668;28;20191;-75
2022/02/08 19:29:34;;;;;;;3.65;2.88;;;;;;;;;;5047975;28;21507;-75
2022/02/08 19:32:02;;;;;;;5.97;5.18;;;;;;;;;;5043447;28;20241;-75
2022/02/08 19:34:29;;;;;;;5.32;3.83;;;;;;;;;;5042010;28;20190;-74
2022/02/08 19:37:00;;;;;;;4.95;3.80;;;;;;;;;;5048831;28;20195;-76
2022/02/08 19:39:27;;;;;;;5.55;3.85;;;;;;;;;;5049591;28;20183;-75
2022/02/08 19:41:54;;;;;;;3.90;3.45;;;;;;;;;;5038972;28;20229;-75
2022/02/08 19:44:22;;;;;;;6.63;4.38;;;;;;;;;;5050397;28;20654;-75
2022/02/08 19:46:50;;;;;;;4.35;3.92;;;;;;;;;;5036297;28;20187;-75
2022/02/08 19:49:17;;;;;;;4.95;3.70;;;;;;;;;;5048587;28;20191;-75
2022/02/08 19:51:44;;;;;;;5.35;3.65;;;;;;;;;;5043603;28;20227;-75
2022/02/08 19:54:17;;;;;;;4.28;3.88;;;;;;;;;;5044590;28;20577;-75
2022/02/08 19:56:49;;;;;;;4.32;3.42;;;;;;;;;;5048977;28;20272;-75
2022/02/08 19:59:20;;;;;;;4.85;4.10;;;;;;;;;;5043886;28;20724;-75
2022/02/08 20:01:53;;;;;;;5.45;3.97;;;;;;;;;;5044776;28;20210;-75
2022/02/08 20:04:23;;;;;;;4.47;3.70;;;;;;;;;;5041174;28;20278;-75
2022/02/08 20:06:52;;;;;;;6.90;3.97;;;;;;;;;;5045187;28;20256;-75
2022/02/08 20:09:19;;;;;;;3.80;3.50;;;;;;;;;;5031587;28;20188;-76
2022/02/08 20:11:47;;;;;;;3.72;3.42;;;;;;;;;;5036252;28;20214;-73
2022/02/08 20:14:14;;;;;;;5.50;3.40;;;;;;;;;;5034942;28;20725;-75
2022/02/08 20:16:41;;;;;;;5.38;3.45;;;;;;;;;;5037741;28;20196;-76
2022/02/08 20:19:10;;;;;;;4.13;3.75;;;;;;;;;;5049207;28;20198;-75
2022/02/08 20:21:39;;;;;;;4.72;3.58;;;;;;;;;;5042153;28;20734;-76
2022/02/08 20:24:10;;;;;;;3.88;3.10;;;;;;;;;;5040292;28;20658;-75
2022/02/08 20:27:01;;;;;;;8.88;4.15;;;;;;;;;;5040398;28;20218;-75
2022/02/08 20:29:28;;;;;;;3.90;3.50;;;;;;;;;;5046576;28;20201;-76
2022/02/08 20:31:55;;;;;;;5.10;3.58;;;;;;;;;;5043275;28;20222;-75